createdAt,value
2022-08-26T00:00:05.109Z,10.4
2022-08-26T00:05:05.093Z,11.4
2022-08-26T00:10:05.116Z,11.4
2022-08-26T00:15:05.117Z,10.8
2022-08-26T00:20:05.102Z,10.8
2022-08-26T00:25:05.092Z,10.5
2022-08-26T00:30:05.124Z,10.5
2022-08-26T00:35:05.088Z,11.3
2022-08-26T00:40:05.476Z,11.3
2022-08-26T00:45:10.295Z,11
2022-08-26T00:50:05.090Z,11
2022-08-26T00:55:05.082Z,11.7
2022-08-26T01:00:05.117Z,11.7
2022-08-26T01:05:05.087Z,10.7
2022-08-26T01:10:05.094Z,10.7
2022-08-26T01:15:05.162Z,11.7
2022-08-26T01:20:05.134Z,11.7
2022-08-26T01:25:05.085Z,11.8
2022-08-26T01:30:05.104Z,11.8
2022-08-26T01:35:05.097Z,11.3
2022-08-26T01:40:05.120Z,11.3
2022-08-26T01:45:05.103Z,11.9
2022-08-26T01:50:05.096Z,11.9
2022-08-26T01:55:05.084Z,11.3
2022-08-26T02:00:05.101Z,11.3
2022-08-26T02:05:05.089Z,12.1
2022-08-26T02:10:05.097Z,12.1
2022-08-26T02:15:05.564Z,12.2
2022-08-26T02:20:05.091Z,12.2
2022-08-26T02:25:05.101Z,13.1
2022-08-26T02:30:05.117Z,13.1
2022-08-26T02:35:05.083Z,12.5
2022-08-26T02:40:05.166Z,12.5
2022-08-26T02:45:05.111Z,12.3
2022-08-26T02:50:05.107Z,12.3
2022-08-26T02:55:05.086Z,12.5
2022-08-26T03:00:05.106Z,12.5
2022-08-26T03:05:05.094Z,12.2
2022-08-26T03:10:06.963Z,12.2
2022-08-26T03:15:15.608Z,12.2
2022-08-26T03:20:05.101Z,12.2
2022-08-26T03:25:05.090Z,12.6
2022-08-26T03:30:05.110Z,12.6
2022-08-26T03:35:05.087Z,13.5
2022-08-26T03:40:05.127Z,13.5
2022-08-26T03:45:05.104Z,12.5
2022-08-26T03:50:05.104Z,12.5
2022-08-26T03:55:05.089Z,12.9
2022-08-26T04:00:05.109Z,12.9
2022-08-26T04:05:05.092Z,12.8
2022-08-26T04:10:05.115Z,12.8
2022-08-26T04:15:05.107Z,13.4
2022-08-26T04:20:05.096Z,13.4
2022-08-26T04:25:05.099Z,13.5
2022-08-26T04:30:05.116Z,13.5
2022-08-26T04:35:05.090Z,13.5
2022-08-26T04:40:05.143Z,13.5
2022-08-26T04:45:05.750Z,13.4
2022-08-26T04:50:05.094Z,13.4
2022-08-26T04:55:05.993Z,12.8
2022-08-26T05:00:05.115Z,12.8
2022-08-26T05:05:05.102Z,13.3
2022-08-26T05:10:05.097Z,13.3
2022-08-26T05:15:05.113Z,13.2
2022-08-26T05:20:05.093Z,13.2
2022-08-26T05:25:05.096Z,13.3
2022-08-26T05:30:05.122Z,13.3
2022-08-26T05:35:05.090Z,12.7
2022-08-26T05:40:05.154Z,12.7
2022-08-26T05:45:05.109Z,12.8
2022-08-26T05:50:05.122Z,12.8
2022-08-26T05:55:05.086Z,13.1
2022-08-26T06:00:05.117Z,13.1
2022-08-26T06:05:05.091Z,13.6
2022-08-26T06:10:28.521Z,13.6
2022-08-26T06:15:05.099Z,13.7
2022-08-26T06:20:05.093Z,13.7
2022-08-26T06:25:05.087Z,13.2
2022-08-26T06:30:05.112Z,13.2
2022-08-26T06:35:05.094Z,12.8
2022-08-26T06:40:05.111Z,12.8
2022-08-26T06:45:05.111Z,12.8
2022-08-26T06:50:05.093Z,12.8
2022-08-26T06:55:05.095Z,12.8
2022-08-26T07:00:05.119Z,12.8
2022-08-26T07:05:05.090Z,13.9
2022-08-26T07:10:05.093Z,13.9
2022-08-26T07:15:05.096Z,15.3
2022-08-26T07:20:05.084Z,15.3
2022-08-26T07:25:05.094Z,13.6
2022-08-26T07:30:05.104Z,13.6
2022-08-26T07:35:05.094Z,13.6
2022-08-26T07:40:05.133Z,13.6
2022-08-26T07:45:05.099Z,13.8
2022-08-26T07:50:05.086Z,13.8
2022-08-26T07:55:05.094Z,13.7
2022-08-26T08:00:05.117Z,13.7
2022-08-26T08:05:05.161Z,13.3
2022-08-26T08:10:09.236Z,13.3
2022-08-26T08:15:05.102Z,14
2022-08-26T08:20:05.101Z,14
2022-08-26T08:25:06.206Z,14.6
2022-08-26T08:30:05.120Z,14.6
2022-08-26T08:35:10.978Z,14.6
2022-08-26T08:40:05.158Z,14.6
2022-08-26T08:45:05.121Z,13.9
2022-08-26T08:50:05.100Z,13.9
2022-08-26T08:55:05.101Z,13.8
2022-08-26T09:00:05.108Z,13.8
2022-08-26T09:05:05.096Z,13.3
2022-08-26T09:10:05.088Z,13.3
2022-08-26T09:15:05.103Z,12.4
2022-08-26T09:20:05.094Z,12.4
2022-08-26T09:25:05.083Z,14.6
2022-08-26T09:30:05.134Z,14.6
2022-08-26T09:35:06.133Z,12
2022-08-26T09:40:05.120Z,12
2022-08-26T09:45:05.104Z,10.7
2022-08-26T09:50:05.094Z,10.7
2022-08-26T09:55:05.102Z,12.1
2022-08-26T10:00:05.112Z,12.1
2022-08-26T10:05:09.054Z,11
2022-08-26T10:10:05.100Z,11
2022-08-26T10:15:05.112Z,10.1
2022-08-26T10:20:05.089Z,10.1
2022-08-26T10:25:05.085Z,11.6
2022-08-26T10:30:05.110Z,11.6
2022-08-26T10:35:05.080Z,11.8
2022-08-26T10:40:05.141Z,11.8
2022-08-26T10:45:05.105Z,11.1
2022-08-26T10:50:05.088Z,11.1
2022-08-26T10:55:05.105Z,9.4
2022-08-26T11:00:05.124Z,9.4
2022-08-26T11:05:05.092Z,10.3
2022-08-26T11:10:05.092Z,10.3
2022-08-26T11:15:05.332Z,9.6
2022-08-26T11:20:09.132Z,9.6
2022-08-26T11:25:05.090Z,9.2
2022-08-26T11:30:05.130Z,9.2
2022-08-26T11:35:05.100Z,9
2022-08-26T11:40:05.122Z,9
2022-08-26T11:45:05.598Z,10.1
2022-08-26T11:50:05.101Z,10.1
2022-08-26T11:55:05.094Z,9.9
2022-08-26T12:00:05.788Z,9.9
2022-08-26T12:05:05.089Z,9.7
2022-08-26T12:10:05.080Z,9.7
2022-08-26T12:15:05.132Z,8.9
2022-08-26T12:20:05.096Z,8.9
2022-08-26T12:25:05.092Z,9
2022-08-26T12:30:06.741Z,9
2022-08-26T12:40:05.118Z,9.1
2022-08-26T12:45:05.098Z,7.4
2022-08-26T12:50:05.104Z,7.4
2022-08-26T12:55:05.091Z,6.5
2022-08-26T13:00:05.130Z,6.5
2022-08-26T13:05:05.093Z,8.4
2022-08-26T13:10:05.101Z,8.4
2022-08-26T13:15:05.343Z,8.4
2022-08-26T13:20:05.098Z,8.4
2022-08-26T13:25:05.087Z,8
2022-08-26T13:30:05.109Z,8
2022-08-26T13:35:05.866Z,8
2022-08-26T13:40:05.154Z,8
2022-08-26T13:45:05.126Z,7.8
2022-08-26T13:50:05.127Z,7.8
2022-08-26T13:55:05.366Z,10.4
2022-08-26T14:00:05.103Z,10.4
2022-08-26T14:05:05.097Z,10
2022-08-26T14:10:05.102Z,10
2022-08-26T14:15:05.107Z,9.9
2022-08-26T14:20:05.110Z,9.9
2022-08-26T14:25:05.102Z,11.2
2022-08-26T14:30:05.129Z,11.2
2022-08-26T14:35:05.106Z,10.3
2022-08-26T14:40:05.112Z,10.3
2022-08-26T14:45:05.093Z,9.8
2022-08-26T14:50:05.086Z,9.8
2022-08-26T14:55:05.099Z,10.8
2022-08-26T15:00:05.103Z,10.8
2022-08-26T15:05:05.084Z,11.2
2022-08-26T15:10:05.090Z,11.2
2022-08-26T15:15:05.110Z,10.1
2022-08-26T15:20:05.189Z,10.1
2022-08-26T15:25:05.101Z,10.5
2022-08-26T15:30:05.152Z,10.5
2022-08-26T15:35:08.793Z,8.3
2022-08-26T15:40:05.185Z,8.3
2022-08-26T15:45:05.108Z,7.8
2022-08-26T15:50:05.097Z,7.8
2022-08-26T15:55:05.102Z,7.7
2022-08-26T16:00:05.123Z,7.7
2022-08-26T16:05:05.096Z,8.4
2022-08-26T16:10:05.097Z,8.4
2022-08-26T16:15:05.103Z,9.5
2022-08-26T16:20:05.092Z,9.5
2022-08-26T16:25:05.095Z,8.1
2022-08-26T16:30:05.110Z,8.1
2022-08-26T16:35:05.080Z,9.2
2022-08-26T16:40:05.140Z,9.2
2022-08-26T16:45:05.103Z,9
2022-08-26T16:50:05.174Z,9
2022-08-26T16:55:05.153Z,7.7
2022-08-26T17:00:05.116Z,7.7
2022-08-26T17:05:05.093Z,8.9
2022-08-26T17:10:05.095Z,8.9
2022-08-26T17:15:05.104Z,8.3
2022-08-26T17:20:05.098Z,8.3
2022-08-26T17:25:05.093Z,9.4
2022-08-26T17:30:05.109Z,9.4
2022-08-26T17:35:05.092Z,11.3
2022-08-26T17:40:05.149Z,11.3
2022-08-26T17:45:05.114Z,9.7
2022-08-26T17:50:05.101Z,9.7
2022-08-26T17:55:05.099Z,9.6
2022-08-26T18:00:05.118Z,9.6
2022-08-26T18:05:05.097Z,9.6
2022-08-26T18:10:05.100Z,9.6
2022-08-26T18:15:05.101Z,8.7
2022-08-26T18:20:05.099Z,8.7
2022-08-26T18:25:05.083Z,6.6
2022-08-26T18:30:05.111Z,6.6
2022-08-26T18:35:05.084Z,6.6
2022-08-26T18:40:05.146Z,4.3
2022-08-26T18:45:05.104Z,4.3
2022-08-26T18:50:05.095Z,6.2
2022-08-26T18:55:05.100Z,6.2
2022-08-26T19:00:05.121Z,6.2
2022-08-26T19:05:05.094Z,6.2
2022-08-26T19:10:05.370Z,8.2
2022-08-26T19:15:05.227Z,8.2
2022-08-26T19:20:05.093Z,6.8
2022-08-26T19:25:05.097Z,6.8
2022-08-26T19:30:05.349Z,6.6
2022-08-26T19:35:05.092Z,6.6
2022-08-26T19:40:05.105Z,8
2022-08-26T19:45:05.108Z,8
2022-08-26T19:50:05.094Z,7.5
2022-08-26T19:55:05.090Z,7.5
2022-08-26T20:00:05.119Z,8.2
2022-08-26T20:05:05.102Z,8.2
2022-08-26T20:10:05.098Z,9.7
2022-08-26T20:15:05.131Z,9.7
2022-08-26T20:20:05.096Z,7.6
2022-08-26T20:25:05.093Z,7.6
2022-08-26T20:30:05.100Z,7.9
2022-08-26T20:35:05.087Z,7.9
2022-08-26T20:40:05.096Z,7.7
2022-08-26T20:45:05.107Z,7.7
2022-08-26T20:50:05.090Z,7.9
2022-08-26T20:55:05.086Z,7.9
2022-08-26T21:00:05.122Z,8.3
2022-08-26T21:05:05.165Z,8.3
2022-08-26T21:10:05.096Z,8.3
2022-08-26T21:15:05.110Z,8.3
2022-08-26T21:20:05.094Z,8.9
2022-08-26T21:25:05.086Z,8.9
2022-08-26T21:30:05.108Z,8.8
2022-08-26T21:35:05.092Z,8.8
2022-08-26T21:40:05.173Z,9.8
2022-08-26T21:45:05.108Z,9.8
2022-08-26T21:50:05.098Z,9.5
2022-08-26T21:55:05.084Z,9.5
2022-08-26T22:00:05.125Z,9.7
2022-08-26T22:05:05.093Z,9.7
2022-08-26T22:10:05.099Z,10.5
2022-08-26T22:15:05.113Z,10.5
2022-08-26T22:20:05.089Z,12.1
2022-08-26T22:25:05.096Z,12.1
2022-08-26T22:30:05.108Z,10.7
2022-08-26T22:35:28.679Z,10.7
2022-08-26T22:40:05.131Z,11.2
2022-08-26T22:45:05.103Z,11.2
2022-08-26T22:50:05.093Z,12.5
2022-08-26T22:55:05.092Z,12.5
2022-08-26T23:00:05.120Z,13.9
2022-08-26T23:05:05.090Z,13.9
2022-08-26T23:10:05.091Z,12.1
2022-08-26T23:15:05.123Z,12.1
2022-08-26T23:20:05.103Z,12.8
2022-08-26T23:25:07.624Z,12.8
2022-08-26T23:30:05.132Z,10
2022-08-26T23:35:05.100Z,10
2022-08-26T23:40:05.168Z,9
2022-08-26T23:45:05.101Z,9
2022-08-26T23:50:05.093Z,9
2022-08-26T23:55:05.095Z,9
